Wetterstation Vordersexau
Wetterdaten: Woche 29.05.23 - 04.06.23 (KW22)
Datum Zeit Temp. A. Feuchte A. Luftdruck Regen Wind Richtung Taupunkt Windchill Windben
29.05.2023 00:00 15,2 C 69 % 1011,2 hPa 0,0 l/m 0,0 km/h (0 Bft) O 9,6 C 15,2 C 0,0 km/h (0 Bft)
29.05.2023 01:00 15,7 C 68 % 1011,3 hPa 0,0 l/m 1,1 km/h (1 Bft) SO 9,8 C 15,7 C 3,6 km/h (1 Bft)
29.05.2023 02:00 14,2 C 71 % 1011,4 hPa 0,0 l/m 1,1 km/h (1 Bft) O-SO 9,0 C 14,2 C 2,5 km/h (1 Bft)
29.05.2023 03:00 13,7 C 74 % 1011,4 hPa 0,0 l/m 1,1 km/h (1 Bft) N 9,2 C 13,7 C 3,6 km/h (1 Bft)
29.05.2023 04:00 12,0 C 80 % 1011,3 hPa 0,0 l/m 0,0 km/h (0 Bft) N 8,7 C 12,0 C 2,5 km/h (1 Bft)
29.05.2023 05:00 11,9 C 79 % 1011,3 hPa 0,0 l/m 0,0 km/h (0 Bft) N 8,4 C 11,9 C 2,5 km/h (1 Bft)
29.05.2023 06:00 10,5 C 88 % 1011,7 hPa 0,0 l/m 0,0 km/h (0 Bft) N-NW 8,6 C 10,5 C 0,0 km/h (0 Bft)
29.05.2023 07:00 12,2 C 85 % 1012,1 hPa 0,0 l/m 1,1 km/h (1 Bft) W-NW 9,8 C 12,2 C 2,5 km/h (1 Bft)
29.05.2023 08:00 14,3 C 79 % 1012,4 hPa 0,0 l/m 1,1 km/h (1 Bft) W-NW 10,7 C 14,3 C 3,6 km/h (1 Bft)
29.05.2023 09:00 17,1 C 71 % 1012,6 hPa 0,0 l/m 2,5 km/h (1 Bft) W 11,8 C 17,1 C 3,6 km/h (1 Bft)
29.05.2023 10:00 20,5 C 66 % 1012,4 hPa 0,0 l/m 1,1 km/h (1 Bft) S 13,9 C 20,5 C 2,5 km/h (1 Bft)
29.05.2023 11:00 23,8 C 52 % 1012,0 hPa 0,0 l/m 3,6 km/h (1 Bft) NO 13,3 C 23,8 C 6,1 km/h (2 Bft)
29.05.2023 12:00 25,6 C 36 % 1011,7 hPa 0,0 l/m 5,0 km/h (1 Bft) N-NO 9,4 C 25,6 C 9,7 km/h (2 Bft)
29.05.2023 13:00 26,4 C 35 % 1011,5 hPa 0,0 l/m 6,1 km/h (2 Bft) O-NO 9,7 C 26,4 C 9,7 km/h (2 Bft)
29.05.2023 14:00 27,3 C 44 % 1011,3 hPa 0,0 l/m 3,6 km/h (1 Bft) N 14,0 C 27,3 C 7,2 km/h (2 Bft)
29.05.2023 15:00 27,7 C 34 % 1011,2 hPa 0,0 l/m 6,1 km/h (2 Bft) N 10,4 C 27,7 C 9,7 km/h (2 Bft)
29.05.2023 16:00 27,4 C 38 % 1011,0 hPa 0,0 l/m 3,6 km/h (1 Bft) N-NO 11,8 C 27,4 C 6,1 km/h (2 Bft)
29.05.2023 17:00 27,1 C 37 % 1011,0 hPa 0,0 l/m 3,6 km/h (1 Bft) NO 11,1 C 27,1 C 6,1 km/h (2 Bft)
29.05.2023 18:00 26,9 C 37 % 1010,7 hPa 0,0 l/m 1,1 km/h (1 Bft) N 11,0 C 26,9 C 3,6 km/h (1 Bft)
29.05.2023 19:00 25,6 C 35 % 1010,9 hPa 0,0 l/m 2,5 km/h (1 Bft) N-NO 9,0 C 25,6 C 3,6 km/h (1 Bft)
29.05.2023 20:00 23,7 C 37 % 1011,5 hPa 0,0 l/m 1,1 km/h (1 Bft) N 8,1 C 23,7 C 2,5 km/h (1 Bft)
29.05.2023 21:00 22,0 C 42 % 1012,0 hPa 0,0 l/m 0,0 km/h (0 Bft) N 8,5 C 22,0 C 2,5 km/h (1 Bft)
29.05.2023 22:00 17,2 C 58 % 1012,9 hPa 0,0 l/m 0,0 km/h (0 Bft) N 8,9 C 17,2 C 0,0 km/h (0 Bft)
29.05.2023 23:00 14,2 C 77 % 1013,2 hPa 0,0 l/m 0,0 km/h (0 Bft) N 10,2 C 14,2 C 0,0 km/h (0 Bft)
30.05.2023 00:00 14,8 C 71 % 1013,4 hPa 0,0 l/m 0,0 km/h (0 Bft) NO 9,6 C 14,8 C 2,5 km/h (1 Bft)
30.05.2023 01:00 15,0 C 68 % 1013,4 hPa 0,0 l/m 2,5 km/h (1 Bft) N 9,1 C 15,0 C 3,6 km/h (1 Bft)
30.05.2023 02:00 14,2 C 70 % 1013,1 hPa 0,0 l/m 0,0 km/h (0 Bft) W-NW 8,8 C 14,2 C 2,5 km/h (1 Bft)
30.05.2023 03:00 12,2 C 82 % 1013,4 hPa 0,0 l/m 2,5 km/h (1 Bft) N 9,2 C 12,2 C 3,6 km/h (1 Bft)
30.05.2023 04:00 11,4 C 85 % 1013,7 hPa 0,0 l/m 0,0 km/h (0 Bft) W-SW 9,0 C 11,4 C 0,0 km/h (0 Bft)
30.05.2023 05:00 11,3 C 87 % 1013,8 hPa 0,0 l/m 1,1 km/h (1 Bft) N 9,2 C 11,3 C 2,5 km/h (1 Bft)
30.05.2023 06:00 11,7 C 85 % 1014,2 hPa 0,0 l/m 0,0 km/h (0 Bft) W-NW 9,3 C 11,7 C 2,5 km/h (1 Bft)
30.05.2023 07:00 13,2 C 86 % 1014,4 hPa 0,0 l/m 2,5 km/h (1 Bft) W-SW 10,9 C 13,2 C 6,1 km/h (2 Bft)
30.05.2023 08:00 15,5 C 82 % 1014,7 hPa 0,0 l/m 5,0 km/h (1 Bft) W-NW 12,4 C 15,5 C 7,2 km/h (2 Bft)
30.05.2023 09:00 17,4 C 75 % 1015,1 hPa 0,0 l/m 2,5 km/h (1 Bft) W 12,9 C 17,4 C 6,1 km/h (2 Bft)
30.05.2023 10:00 19,0 C 71 % 1014,9 hPa 0,0 l/m 7,2 km/h (2 Bft) W 13,6 C 18,6 C 13,3 km/h (3 Bft)
30.05.2023 11:00 21,4 C 62 % 1014,8 hPa 0,0 l/m 6,1 km/h (2 Bft) N 13,8 C 21,4 C 11,2 km/h (2 Bft)
30.05.2023 12:00 24,0 C 54 % 1014,3 hPa 0,0 l/m 0,0 km/h (0 Bft) N 14,1 C 24,0 C 2,5 km/h (1 Bft)
30.05.2023 13:00 25,1 C 43 % 1013,4 hPa 0,0 l/m 6,1 km/h (2 Bft) N 11,6 C 25,1 C 11,2 km/h (2 Bft)
30.05.2023 14:00 25,1 C 50 % 1012,9 hPa 0,0 l/m 3,6 km/h (1 Bft) O-NO 13,9 C 25,1 C 7,2 km/h (2 Bft)
30.05.2023 15:00 26,0 C 40 % 1013,0 hPa 0,0 l/m 6,1 km/h (2 Bft) N 11,3 C 26,0 C 11,2 km/h (2 Bft)
30.05.2023 16:00 26,3 C 38 % 1012,6 hPa 0,0 l/m 3,6 km/h (1 Bft) O-NO 10,8 C 26,3 C 9,7 km/h (2 Bft)
30.05.2023 17:00 25,7 C 41 % 1012,5 hPa 0,0 l/m 5,0 km/h (1 Bft) N 11,4 C 25,7 C 7,2 km/h (2 Bft)
30.05.2023 18:00 25,3 C 40 % 1012,2 hPa 0,0 l/m 6,1 km/h (2 Bft) NO 10,7 C 25,3 C 13,3 km/h (3 Bft)
30.05.2023 19:00 24,0 C 43 % 1012,6 hPa 0,0 l/m 5,0 km/h (1 Bft) NO 10,6 C 24,0 C 9,7 km/h (2 Bft)
30.05.2023 20:00 22,5 C 48 % 1012,8 hPa 0,0 l/m 3,6 km/h (1 Bft) NO 10,9 C 22,5 C 6,1 km/h (2 Bft)
30.05.2023 21:00 20,9 C 50 % 1013,3 hPa 0,0 l/m 3,6 km/h (1 Bft) NO 10,1 C 20,9 C 6,1 km/h (2 Bft)
30.05.2023 22:00 20,2 C 48 % 1013,6 hPa 0,0 l/m 5,0 km/h (1 Bft) NO 8,8 C 20,2 C 7,2 km/h (2 Bft)
30.05.2023 23:00 19,6 C 43 % 1013,6 hPa 0,0 l/m 6,1 km/h (2 Bft) NO 6,7 C 19,6 C 14,8 km/h (3 Bft)
31.05.2023 00:00 18,8 C 43 % 1013,7 hPa 0,0 l/m 3,6 km/h (1 Bft) NO 6,0 C 18,8 C 6,1 km/h (2 Bft)
31.05.2023 01:00 17,4 C 45 % 1013,4 hPa 0,0 l/m 5,0 km/h (1 Bft) NO 5,3 C 17,4 C 9,7 km/h (2 Bft)
31.05.2023 02:00 16,1 C 51 % 1013,1 hPa 0,0 l/m 3,6 km/h (1 Bft) N-NO 6,0 C 16,1 C 6,1 km/h (2 Bft)
31.05.2023 03:00 15,7 C 54 % 1013,4 hPa 0,0 l/m 1,1 km/h (1 Bft) N-NO 6,4 C 15,7 C 2,5 km/h (1 Bft)
31.05.2023 04:00 14,8 C 58 % 1013,4 hPa 0,0 l/m 1,1 km/h (1 Bft) N 6,6 C 14,8 C 3,6 km/h (1 Bft)
31.05.2023 05:00 12,7 C 68 % 1013,5 hPa 0,0 l/m 0,0 km/h (0 Bft) N 6,9 C 12,7 C 2,5 km/h (1 Bft)
31.05.2023 06:00 11,5 C 75 % 1013,9 hPa 0,0 l/m 0,0 km/h (0 Bft) N 7,2 C 11,5 C 2,5 km/h (1 Bft)
31.05.2023 07:00 13,2 C 69 % 1014,1 hPa 0,0 l/m 0,0 km/h (0 Bft) N 7,6 C 13,2 C 0,0 km/h (0 Bft)
31.05.2023 08:00 16,2 C 70 % 1013,8 hPa 0,0 l/m 0,0 km/h (0 Bft) W-SW 10,7 C 16,2 C 0,0 km/h (0 Bft)
31.05.2023 09:00 19,1 C 56 % 1013,6 hPa 0,0 l/m 3,6 km/h (1 Bft) W-NW 10,1 C 19,1 C 6,1 km/h (2 Bft)
31.05.2023 10:00 20,6 C 54 % 1013,2 hPa 0,0 l/m 6,1 km/h (2 Bft) NO 11,0 C 20,6 C 11,2 km/h (2 Bft)
31.05.2023 11:00 23,7 C 43 % 1012,9 hPa 0,0 l/m 3,6 km/h (1 Bft) O-NO 10,4 C 23,7 C 6,1 km/h (2 Bft)
31.05.2023 12:00 25,1 C 44 % 1012,4 hPa 0,0 l/m 3,6 km/h (1 Bft) N-NO 12,0 C 25,1 C 6,1 km/h (2 Bft)
31.05.2023 13:00 26,1 C 37 % 1012,3 hPa 0,0 l/m 6,1 km/h (2 Bft) NO 10,3 C 26,1 C 11,2 km/h (2 Bft)
31.05.2023 14:00 26,3 C 37 % 1011,9 hPa 0,0 l/m 6,1 km/h (2 Bft) NO 10,4 C 26,3 C 9,7 km/h (2 Bft)
31.05.2023 15:00 26,6 C 36 % 1011,5 hPa 0,0 l/m 7,2 km/h (2 Bft) N-NO 10,3 C 26,4 C 17,3 km/h (3 Bft)
31.05.2023 16:00 27,0 C 36 % 1011,4 hPa 0,0 l/m 1,1 km/h (1 Bft) N 10,6 C 27,0 C 2,5 km/h (1 Bft)
31.05.2023 17:00 26,6 C 34 % 1011,2 hPa 0,0 l/m 5,0 km/h (1 Bft) N-NO 9,4 C 26,6 C 6,1 km/h (2 Bft)
31.05.2023 18:00 26,1 C 37 % 1010,9 hPa 0,0 l/m 1,1 km/h (1 Bft) O-NO 10,3 C 26,1 C 2,5 km/h (1 Bft)
31.05.2023 19:00 25,0 C 32 % 1011,3 hPa 0,0 l/m 5,0 km/h (1 Bft) NO 7,1 C 25,0 C 9,7 km/h (2 Bft)
31.05.2023 20:00 23,3 C 39 % 1011,7 hPa 0,0 l/m 1,1 km/h (1 Bft) NO 8,6 C 23,3 C 2,5 km/h (1 Bft)
31.05.2023 21:00 20,6 C 47 % 1012,0 hPa 0,0 l/m 1,1 km/h (1 Bft) O 8,9 C 20,6 C 2,5 km/h (1 Bft)
31.05.2023 22:00 17,0 C 56 % 1012,6 hPa 0,0 l/m 2,5 km/h (1 Bft) O 8,2 C 17,0 C 3,6 km/h (1 Bft)
31.05.2023 23:00 16,2 C 57 % 1012,8 hPa 0,0 l/m 2,5 km/h (1 Bft) O 7,7 C 16,2 C 3,6 km/h (1 Bft)
01.06.2023 00:00 13,9 C 67 % 1013,0 hPa 0,0 l/m 0,0 km/h (0 Bft) N 7,9 C 13,9 C 0,0 km/h (0 Bft)
01.06.2023 01:00 13,8 C 68 % 1013,0 hPa 0,0 l/m 0,0 km/h (0 Bft) O-NO 8,0 C 13,8 C 0,0 km/h (0 Bft)
01.06.2023 02:00 12,3 C 76 % 1012,9 hPa 0,0 l/m 2,5 km/h (1 Bft) O-NO 8,2 C 12,3 C 3,6 km/h (1 Bft)
01.06.2023 03:00 11,9 C 77 % 1012,7 hPa 0,0 l/m 1,1 km/h (1 Bft) N 8,0 C 11,9 C 2,5 km/h (1 Bft)
01.06.2023 04:00 11,3 C 80 % 1012,7 hPa 0,0 l/m 0,0 km/h (0 Bft) N 8,0 C 11,3 C 0,0 km/h (0 Bft)
01.06.2023 05:00 11,1 C 82 % 1012,7 hPa 0,0 l/m 0,0 km/h (0 Bft) N 8,1 C 11,1 C 0,0 km/h (0 Bft)
01.06.2023 06:00 9,9 C 90 % 1013,1 hPa 0,0 l/m 0,0 km/h (0 Bft) N 8,3 C 9,9 C 0,0 km/h (0 Bft)
01.06.2023 07:00 12,6 C 83 % 1013,5 hPa 0,0 l/m 0,0 km/h (0 Bft) NW 9,8 C 12,6 C 0,0 km/h (0 Bft)
01.06.2023 08:00 14,9 C 75 % 1013,6 hPa 0,0 l/m 3,6 km/h (1 Bft) SW 10,5 C 14,9 C 3,6 km/h (1 Bft)
01.06.2023 09:00 17,4 C 66 % 1013,7 hPa 0,0 l/m 2,5 km/h (1 Bft) N 11,0 C 17,4 C 3,6 km/h (1 Bft)
01.06.2023 10:00 20,2 C 64 % 1013,4 hPa 0,0 l/m 0,0 km/h (0 Bft) SW 13,2 C 20,2 C 2,5 km/h (1 Bft)
01.06.2023 11:00 21,7 C 56 % 1013,1 hPa 0,0 l/m 3,6 km/h (1 Bft) W 12,5 C 21,7 C 6,1 km/h (2 Bft)
01.06.2023 12:00 24,7 C 55 % 1012,4 hPa 0,0 l/m 1,1 km/h (1 Bft) NW 15,0 C 24,7 C 6,1 km/h (2 Bft)
01.06.2023 13:00 26,4 C 46 % 1011,8 hPa 0,0 l/m 5,0 km/h (1 Bft) NW 13,8 C 26,4 C 11,2 km/h (2 Bft)
01.06.2023 14:00 27,0 C 45 % 1011,3 hPa 0,0 l/m 5,0 km/h (1 Bft) N 14,0 C 27,0 C 7,2 km/h (2 Bft)
01.06.2023 15:00 27,3 C 41 % 1010,9 hPa 0,0 l/m 2,5 km/h (1 Bft) NO 12,9 C 27,3 C 6,1 km/h (2 Bft)
01.06.2023 16:00 27,4 C 41 % 1010,4 hPa 0,0 l/m 7,2 km/h (2 Bft) NO 13,0 C 27,3 C 11,2 km/h (2 Bft)
01.06.2023 17:00 27,2 C 43 % 1010,0 hPa 0,0 l/m 2,5 km/h (1 Bft) N-NO 13,5 C 27,2 C 3,6 km/h (1 Bft)
01.06.2023 18:00 26,8 C 43 % 1009,5 hPa 0,0 l/m 5,0 km/h (1 Bft) N 13,2 C 26,8 C 7,2 km/h (2 Bft)
01.06.2023 19:00 25,7 C 43 % 1009,5 hPa 0,0 l/m 1,1 km/h (1 Bft) NO 12,2 C 25,7 C 2,5 km/h (1 Bft)
01.06.2023 20:00 25,0 C 42 % 1009,5 hPa 0,0 l/m 1,1 km/h (1 Bft) N 11,2 C 25,0 C 2,5 km/h (1 Bft)
01.06.2023 21:00 21,7 C 56 % 1009,7 hPa 0,0 l/m 0,0 km/h (0 Bft) N 12,5 C 21,7 C 0,0 km/h (0 Bft)
01.06.2023 22:00 18,0 C 68 % 1010,2 hPa 0,0 l/m 0,0 km/h (0 Bft) N 12,0 C 18,0 C 0,0 km/h (0 Bft)
01.06.2023 23:00 15,7 C 74 % 1010,2 hPa 0,0 l/m 0,0 km/h (0 Bft) N 11,1 C 15,7 C 2,5 km/h (1 Bft)
02.06.2023 00:00 15,1 C 77 % 1010,2 hPa 0,0 l/m 0,0 km/h (0 Bft) N 11,1 C 15,1 C 2,5 km/h (1 Bft)
02.06.2023 01:00 14,7 C 77 % 1010,3 hPa 0,0 l/m 0,0 km/h (0 Bft) N 10,7 C 14,7 C 2,5 km/h (1 Bft)
02.06.2023 02:00 13,3 C 82 % 1010,4 hPa 0,0 l/m 0,0 km/h (0 Bft) N 10,3 C 13,3 C 0,0 km/h (0 Bft)
02.06.2023 03:00 13,0 C 83 % 1010,5 hPa 0,0 l/m 1,1 km/h (1 Bft) N 10,2 C 13,0 C 2,5 km/h (1 Bft)
02.06.2023 04:00 12,2 C 85 % 1010,6 hPa 0,0 l/m 0,0 km/h (0 Bft) N 9,8 C 12,2 C 0,0 km/h (0 Bft)
02.06.2023 05:00 10,7 C 91 % 1010,6 hPa 0,0 l/m 1,1 km/h (1 Bft) N 9,3 C 10,7 C 2,5 km/h (1 Bft)
02.06.2023 06:00 11,1 C 90 % 1011,1 hPa 0,0 l/m 2,5 km/h (1 Bft) N 9,5 C 11,1 C 2,5 km/h (1 Bft)
02.06.2023 07:00 13,5 C 85 % 1011,2 hPa 0,0 l/m 0,0 km/h (0 Bft) W 11,0 C 13,5 C 0,0 km/h (0 Bft)
02.06.2023 08:00 15,1 C 79 % 1011,6 hPa 0,0 l/m 2,5 km/h (1 Bft) W-NW 11,5 C 15,1 C 3,6 km/h (1 Bft)
02.06.2023 09:00 16,3 C 75 % 1011,8 hPa 0,0 l/m 3,6 km/h (1 Bft) W 11,9 C 16,3 C 6,1 km/h (2 Bft)
02.06.2023 10:00 17,6 C 70 % 1011,8 hPa 0,0 l/m 6,1 km/h (2 Bft) W 12,1 C 17,6 C 9,7 km/h (2 Bft)
02.06.2023 11:00 19,3 C 68 % 1011,5 hPa 0,0 l/m 6,1 km/h (2 Bft) W-SW 13,2 C 19,3 C 9,7 km/h (2 Bft)
02.06.2023 12:00 21,2 C 60 % 1011,3 hPa 0,0 l/m 6,1 km/h (2 Bft) NW 13,1 C 21,2 C 13,3 km/h (3 Bft)
02.06.2023 13:00 22,6 C 58 % 1010,8 hPa 0,0 l/m 5,0 km/h (1 Bft) W-NW 13,9 C 22,6 C 7,2 km/h (2 Bft)
02.06.2023 14:00 23,1 C 58 % 1010,4 hPa 0,0 l/m 6,1 km/h (2 Bft) NW 14,4 C 23,1 C 9,7 km/h (2 Bft)
02.06.2023 15:00 24,6 C 52 % 1010,1 hPa 0,0 l/m 6,1 km/h (2 Bft) N-NO 14,1 C 24,6 C 9,7 km/h (2 Bft)
02.06.2023 16:00 25,2 C 50 % 1009,5 hPa 0,0 l/m 3,6 km/h (1 Bft) W-NW 14,0 C 25,2 C 7,2 km/h (2 Bft)
02.06.2023 17:00 25,2 C 48 % 1009,0 hPa 0,0 l/m 3,6 km/h (1 Bft) W-NW 13,4 C 25,2 C 6,1 km/h (2 Bft)
02.06.2023 18:00 24,7 C 48 % 1008,8 hPa 0,0 l/m 5,0 km/h (1 Bft) N-NO 12,9 C 24,7 C 9,7 km/h (2 Bft)
02.06.2023 19:00 23,4 C 51 % 1008,7 hPa 0,0 l/m 2,5 km/h (1 Bft) N 12,7 C 23,4 C 3,6 km/h (1 Bft)
02.06.2023 20:00 21,8 C 54 % 1009,2 hPa 0,0 l/m 0,0 km/h (0 Bft) N 12,1 C 21,8 C 0,0 km/h (0 Bft)
02.06.2023 21:00 19,4 C 60 % 1009,8 hPa 0,0 l/m 0,0 km/h (0 Bft) N-NW 11,4 C 19,4 C 0,0 km/h (0 Bft)
02.06.2023 22:00 16,1 C 76 % 1010,6 hPa 0,0 l/m 1,1 km/h (1 Bft) N 11,9 C 16,1 C 3,6 km/h (1 Bft)
02.06.2023 23:00 14,8 C 79 % 1010,6 hPa 0,0 l/m 0,0 km/h (0 Bft) N 11,2 C 14,8 C 0,0 km/h (0 Bft)
03.06.2023 00:00 14,2 C 79 % 1011,0 hPa 0,0 l/m 0,0 km/h (0 Bft) N 10,6 C 14,2 C 2,5 km/h (1 Bft)
03.06.2023 01:00 13,6 C 80 % 1010,8 hPa 0,0 l/m 0,0 km/h (0 Bft) N-NW 10,2 C 13,6 C 0,0 km/h (0 Bft)
03.06.2023 02:00 11,8 C 88 % 1010,8 hPa 0,0 l/m 2,5 km/h (1 Bft) N 9,9 C 11,8 C 3,6 km/h (1 Bft)
03.06.2023 03:00 11,5 C 90 % 1010,5 hPa 0,0 l/m 0,0 km/h (0 Bft) N 9,9 C 11,5 C 0,0 km/h (0 Bft)
03.06.2023 04:00 10,4 C 91 % 1010,5 hPa 0,0 l/m 0,0 km/h (0 Bft) N 9,0 C 10,4 C 0,0 km/h (0 Bft)
03.06.2023 05:00 10,0 C 94 % 1010,8 hPa 0,0 l/m 0,0 km/h (0 Bft) N 9,1 C 10,0 C 0,0 km/h (0 Bft)
03.06.2023 06:00 9,9 C 95 % 1011,0 hPa 0,0 l/m 0,0 km/h (0 Bft) N-NW 9,1 C 9,9 C 0,0 km/h (0 Bft)
03.06.2023 07:00 11,7 C 85 % 1011,0 hPa 0,0 l/m 1,1 km/h (1 Bft) W 9,3 C 11,7 C 3,6 km/h (1 Bft)
03.06.2023 08:00 13,7 C 81 % 1010,9 hPa 0,0 l/m 2,5 km/h (1 Bft) W-NW 10,5 C 13,7 C 3,6 km/h (1 Bft)
03.06.2023 09:00 16,2 C 72 % 1011,5 hPa 0,0 l/m 1,1 km/h (1 Bft) W-SW 11,1 C 16,2 C 3,6 km/h (1 Bft)
03.06.2023 10:00 18,6 C 68 % 1011,4 hPa 0,0 l/m 2,5 km/h (1 Bft) W-NW 12,6 C 18,6 C 3,6 km/h (1 Bft)
03.06.2023 11:00 20,6 C 64 % 1011,2 hPa 0,0 l/m 6,1 km/h (2 Bft) NW 13,5 C 20,6 C 9,7 km/h (2 Bft)
03.06.2023 12:00 22,2 C 62 % 1010,9 hPa 0,0 l/m 5,0 km/h (1 Bft) W 14,6 C 22,2 C 7,2 km/h (2 Bft)
03.06.2023 13:00 23,7 C 59 % 1010,8 hPa 0,0 l/m 6,1 km/h (2 Bft) W 15,2 C 23,7 C 9,7 km/h (2 Bft)
03.06.2023 14:00 24,8 C 57 % 1010,0 hPa 0,0 l/m 7,2 km/h (2 Bft) N 15,7 C 24,6 C 13,3 km/h (3 Bft)
03.06.2023 15:00 27,3 C 48 % 1009,5 hPa 0,0 l/m 3,6 km/h (1 Bft) NW 15,3 C 27,3 C 6,1 km/h (2 Bft)
03.06.2023 16:00 26,9 C 47 % 1009,1 hPa 0,0 l/m 7,2 km/h (2 Bft) W-NW 14,6 C 26,7 C 11,2 km/h (2 Bft)
03.06.2023 17:00 27,2 C 45 % 1008,9 hPa 0,0 l/m 2,5 km/h (1 Bft) N-NO 14,2 C 27,2 C 6,1 km/h (2 Bft)
03.06.2023 18:00 26,5 C 47 % 1008,8 hPa 0,0 l/m 7,2 km/h (2 Bft) S-SW 14,3 C 26,3 C 18,4 km/h (3 Bft)
03.06.2023 19:00 23,3 C 64 % 1009,4 hPa 0,0 l/m 3,6 km/h (1 Bft) SO 16,1 C 23,3 C 7,2 km/h (2 Bft)
03.06.2023 20:00 19,6 C 80 % 1009,6 hPa 0,0 l/m 6,1 km/h (2 Bft) N 16,1 C 19,6 C 7,2 km/h (2 Bft)
03.06.2023 21:00 17,1 C 89 % 1010,0 hPa 0,0 l/m 0,0 km/h (0 Bft) N 15,3 C 17,1 C 0,0 km/h (0 Bft)
03.06.2023 22:00 15,7 C 91 % 1010,7 hPa 0,0 l/m 0,0 km/h (0 Bft) N 14,2 C 15,7 C 0,0 km/h (0 Bft)
03.06.2023 23:00 15,7 C 89 % 1010,9 hPa 0,0 l/m 0,0 km/h (0 Bft) N 13,9 C 15,7 C 0,0 km/h (0 Bft)
04.06.2023 00:00 15,3 C 89 % 1010,7 hPa 0,0 l/m 0,0 km/h (0 Bft) N 13,5 C 15,3 C 0,0 km/h (0 Bft)
04.06.2023 01:00 15,1 C 92 % 1011,0 hPa 0,0 l/m 0,0 km/h (0 Bft) O-SO 13,8 C 15,1 C 2,5 km/h (1 Bft)
04.06.2023 02:00 14,2 C 89 % 1010,8 hPa 0,0 l/m 1,1 km/h (1 Bft) N 12,4 C 14,2 C 3,6 km/h (1 Bft)
04.06.2023 03:00 14,2 C 86 % 1010,7 hPa 0,0 l/m 0,0 km/h (0 Bft) N 11,9 C 14,2 C 2,5 km/h (1 Bft)
04.06.2023 04:00 12,3 C 92 % 1010,9 hPa 0,0 l/m 0,0 km/h (0 Bft) N 11,0 C 12,3 C 0,0 km/h (0 Bft)
04.06.2023 05:00 12,3 C 91 % 1011,2 hPa 0,0 l/m 0,0 km/h (0 Bft) N 10,9 C 12,3 C 0,0 km/h (0 Bft)
04.06.2023 06:00 12,1 C 95 % 1011,6 hPa 0,0 l/m 0,0 km/h (0 Bft) N 11,3 C 12,1 C 0,0 km/h (0 Bft)
04.06.2023 07:00 13,0 C 87 % 1012,0 hPa 0,0 l/m 0,0 km/h (0 Bft) N 10,9 C 13,0 C 0,0 km/h (0 Bft)
04.06.2023 08:00 14,0 C 84 % 1012,7 hPa 0,0 l/m 0,0 km/h (0 Bft) W 11,3 C 14,0 C 2,5 km/h (1 Bft)
04.06.2023 09:00 17,3 C 71 % 1012,8 hPa 0,0 l/m 6,1 km/h (2 Bft) W 12,0 C 17,3 C 7,2 km/h (2 Bft)
04.06.2023 10:00 15,7 C 82 % 1013,0 hPa 0,3 l/m 1,1 km/h (1 Bft) W-NW 12,6 C 15,7 C 3,6 km/h (1 Bft)
04.06.2023 11:00 14,2 C 89 % 1013,1 hPa 0,3 l/m 1,1 km/h (1 Bft) W 12,4 C 14,2 C 2,5 km/h (1 Bft)
04.06.2023 12:00 15,4 C 89 % 1013,1 hPa 0,0 l/m 1,1 km/h (1 Bft) W 13,6 C 15,4 C 3,6 km/h (1 Bft)
04.06.2023 13:00 15,4 C 89 % 1013,1 hPa 0,0 l/m 1,1 km/h (1 Bft) W-NW 13,6 C 15,4 C 3,6 km/h (1 Bft)
04.06.2023 14:00 18,0 C 80 % 1012,6 hPa 0,0 l/m 2,5 km/h (1 Bft) W-NW 14,5 C 18,0 C 3,6 km/h (1 Bft)
04.06.2023 15:00 18,9 C 79 % 1012,2 hPa 0,0 l/m 2,5 km/h (1 Bft) N-NW 15,2 C 18,9 C 6,1 km/h (2 Bft)
04.06.2023 16:00 22,0 C 65 % 1011,7 hPa 0,0 l/m 1,1 km/h (1 Bft) N-NO 15,1 C 22,0 C 2,5 km/h (1 Bft)
04.06.2023 17:00 23,8 C 60 % 1011,4 hPa 0,0 l/m 2,5 km/h (1 Bft) NO 15,6 C 23,8 C 3,6 km/h (1 Bft)
04.06.2023 18:00 24,1 C 50 % 1011,1 hPa 0,0 l/m 3,6 km/h (1 Bft) NO 13,0 C 24,1 C 6,1 km/h (2 Bft)
04.06.2023 19:00 24,7 C 45 % 1011,1 hPa 0,0 l/m 5,0 km/h (1 Bft) NO 12,0 C 24,7 C 7,2 km/h (2 Bft)
04.06.2023 20:00 22,8 C 56 % 1010,9 hPa 0,0 l/m 1,1 km/h (1 Bft) N 13,6 C 22,8 C 3,6 km/h (1 Bft)
04.06.2023 21:00 22,8 C 56 % 1011,2 hPa 0,0 l/m 0,0 km/h (0 Bft) N 13,6 C 22,8 C 0,0 km/h (0 Bft)
04.06.2023 22:00 19,3 C 68 % 1011,4 hPa 0,0 l/m 0,0 km/h (0 Bft) N 13,2 C 19,3 C 0,0 km/h (0 Bft)
04.06.2023 23:00 17,5 C 74 % 1011,8 hPa 0,0 l/m 0,0 km/h (0 Bft) N 12,8 C 17,5 C 2,5 km/h (1 Bft)
Min-Datum _ 01.06.23 31.05.23 02.06.23 - 29.05.23 - 31.05.23 01.06.23 29.05.23
_ Min-Zeit 06:38 19:38 19:38 - 00:38 - 01:38 06:38 00:38
Minimum _ 9,9 C 32 % 1008,7 hPa - 0,0 km/h (0 Bft) - 5,3 C 9,9 C 0,0 km/h (0 Bft)
Max-Datum _ 29.05.23 03.06.23 30.05.23 04.06.23 30.05.23 - 03.06.23 29.05.23 03.06.23
_ Max-Zeit 15:38 06:38 09:38 10:38 10:38 - 19:38 15:38 18:38
Maximum _ 27,7 C 95 % 1015,1 hPa 0,3 l/m 7,2 km/h
W (2 Bft)
- 16,1 C 27,7 C 18,4 km/h
S-SW (3 Bft)
Durchschnitt _ 18,8 C 64 % 1011,8 hPa #0,6 l/m 2,4 km/h (1 Bft) NO 11,2 C 18,8 C 4,6 km/h (1 Bft)
www.sexauwetter.de